createdAt,value
2023-02-11T00:01:35.186Z,1.40
2023-02-11T00:04:03.767Z,1.40
2023-02-11T00:06:32.630Z,1.40
2023-02-11T00:08:59.731Z,1.50
2023-02-11T00:11:30.624Z,1.50
2023-02-11T00:14:00.246Z,1.50
2023-02-11T00:16:28.113Z,1.50
2023-02-11T00:18:55.257Z,1.50
2023-02-11T00:21:25.498Z,1.40
2023-02-11T00:23:53.237Z,1.40
2023-02-11T00:26:27.021Z,1.30
2023-02-11T00:28:54.308Z,1.30
2023-02-11T00:31:23.231Z,1.40
2023-02-11T00:33:50.665Z,1.40
2023-02-11T00:36:26.713Z,1.50
2023-02-11T00:38:55.555Z,1.50
2023-02-11T00:41:23.678Z,1.40
2023-02-11T00:43:51.155Z,1.40
2023-02-11T00:46:18.234Z,1.40
2023-02-11T00:48:45.214Z,1.30
2023-02-11T00:51:12.719Z,1.30
2023-02-11T00:53:40.006Z,1.30
2023-02-11T00:56:07.566Z,1.30
2023-02-11T00:58:35.098Z,1.30
2023-02-11T01:01:02.579Z,1.30
2023-02-11T01:03:29.484Z,1.30
2023-02-11T01:05:56.532Z,1.40
2023-02-11T01:08:23.637Z,1.40
2023-02-11T01:11:03.183Z,1.40
2023-02-11T01:13:32.582Z,1.40
2023-02-11T01:15:59.831Z,1.40
2023-02-11T01:18:27.177Z,1.50
2023-02-11T01:20:54.695Z,1.40
2023-02-11T01:23:22.125Z,1.50
2023-02-11T01:25:50.235Z,1.50
2023-02-11T01:28:21.500Z,1.50
2023-02-11T01:30:48.767Z,1.50
2023-02-11T01:33:15.788Z,1.40
2023-02-11T01:35:43.583Z,1.40
2023-02-11T01:38:25.425Z,1.40
2023-02-11T01:40:56.733Z,1.40
2023-02-11T01:43:25.853Z,1.40
2023-02-11T01:45:58.094Z,1.40
2023-02-11T01:48:36.915Z,1.40
2023-02-11T01:51:31.092Z,1.40
2023-02-11T01:54:17.609Z,1.40
2023-02-11T01:57:08.572Z,1.30
2023-02-11T01:59:49.001Z,1.30
2023-02-11T02:02:22.081Z,1.30
2023-02-11T02:05:00.370Z,1.30
2023-02-11T02:07:40.010Z,1.30
2023-02-11T02:10:17.101Z,1.30
2023-02-11T02:12:43.939Z,1.30
2023-02-11T02:15:24.061Z,1.30
2023-02-11T02:18:29.671Z,1.30
2023-02-11T02:21:24.515Z,1.20
2023-02-11T02:24:27.297Z,1.30
2023-02-11T02:27:18.494Z,1.30
2023-02-11T02:30:11.618Z,1.20
2023-02-11T02:32:52.239Z,1.20
2023-02-11T02:36:01.488Z,1.20
2023-02-11T02:38:33.276Z,1.20
2023-02-11T02:41:14.284Z,1.30
2023-02-11T02:43:46.500Z,1.30
2023-02-11T02:46:30.071Z,1.30
2023-02-11T02:48:58.398Z,1.30
2023-02-11T02:51:37.090Z,1.40
2023-02-11T02:54:31.846Z,1.40
2023-02-11T02:57:30.095Z,1.30
2023-02-11T03:00:13.942Z,1.40
2023-02-11T03:03:17.865Z,1.30
2023-02-11T03:05:58.662Z,1.30
2023-02-11T03:08:47.648Z,1.30
2023-02-11T03:11:18.456Z,1.20
2023-02-11T03:13:48.984Z,1.20
2023-02-11T03:16:30.939Z,1.20
2023-02-11T03:19:10.948Z,1.30
2023-02-11T03:24:34.664Z,1.30
2023-02-11T03:27:18.138Z,1.30
2023-02-11T03:30:16.589Z,1.40
2023-02-11T03:32:56.458Z,1.40
2023-02-11T03:35:50.553Z,1.40
2023-02-11T03:38:28.169Z,1.40
2023-02-11T03:40:56.879Z,1.40
2023-02-11T03:43:41.072Z,1.50
2023-02-11T03:46:11.207Z,1.50
2023-02-11T03:48:55.484Z,1.40
2023-02-11T03:51:25.703Z,1.40
2023-02-11T03:53:57.045Z,1.30
2023-02-11T03:56:29.858Z,1.30
2023-02-11T03:58:57.264Z,1.30
2023-02-11T04:01:24.237Z,1.30
2023-02-11T04:03:51.454Z,1.20
2023-02-11T04:06:18.413Z,1.20
2023-02-11T04:08:45.238Z,1.20
2023-02-11T04:11:12.198Z,1.30
2023-02-11T04:13:39.192Z,1.30
2023-02-11T04:16:06.283Z,1.20
2023-02-11T04:18:33.307Z,1.20
2023-02-11T04:21:00.212Z,1.20
2023-02-11T04:23:27.249Z,1.10
2023-02-11T04:25:54.093Z,1.10
2023-02-11T04:28:21.553Z,1.00
2023-02-11T04:30:51.304Z,1.00
2023-02-11T04:33:18.410Z,0.90
2023-02-11T04:35:45.919Z,0.90
2023-02-11T04:38:13.365Z,0.90
2023-02-11T04:40:41.027Z,1.00
2023-02-11T04:43:08.420Z,0.90
2023-02-11T04:45:35.611Z,0.90
2023-02-11T04:48:03.768Z,0.80
2023-02-11T04:50:30.973Z,0.70
2023-02-11T04:52:57.883Z,0.70
2023-02-11T04:55:24.703Z,0.70
2023-02-11T04:57:51.823Z,0.70
2023-02-11T05:00:18.909Z,0.70
2023-02-11T05:02:45.911Z,0.70
2023-02-11T05:05:12.919Z,0.80
2023-02-11T05:07:39.860Z,0.70
2023-02-11T05:10:07.117Z,0.60
2023-02-11T05:12:34.015Z,0.60
2023-02-11T05:15:00.965Z,0.60
2023-02-11T05:17:27.904Z,0.70
2023-02-11T05:19:54.758Z,0.80
2023-02-11T05:22:22.282Z,0.80
2023-02-11T05:24:49.238Z,0.80
2023-02-11T05:27:16.315Z,0.80
2023-02-11T05:29:43.201Z,0.80
2023-02-11T05:32:10.719Z,0.90
2023-02-11T05:34:37.634Z,0.90
2023-02-11T05:37:04.692Z,0.90
2023-02-11T05:39:31.797Z,0.90
2023-02-11T05:41:58.639Z,1.00
2023-02-11T05:44:27.858Z,1.00
2023-02-11T05:46:54.985Z,1.10
2023-02-11T05:49:21.870Z,1.20
2023-02-11T05:51:49.291Z,1.30
2023-02-11T05:54:16.840Z,1.30
2023-02-11T05:56:45.008Z,1.30
2023-02-11T05:59:14.607Z,1.30
2023-02-11T06:01:41.754Z,1.30
2023-02-11T06:04:08.834Z,1.30
2023-02-11T06:06:36.107Z,1.30
2023-02-11T06:09:03.517Z,1.40
2023-02-11T06:11:30.528Z,1.30
2023-02-11T06:13:57.415Z,1.30
2023-02-11T06:16:25.018Z,1.30
2023-02-11T06:18:52.137Z,1.30
2023-02-11T06:21:19.191Z,1.30
2023-02-11T06:23:46.234Z,1.30
2023-02-11T06:26:20.889Z,1.40
2023-02-11T06:28:48.455Z,1.40
2023-02-11T06:31:16.351Z,1.40
2023-02-11T06:33:43.648Z,1.40
2023-02-11T06:36:22.294Z,1.30
2023-02-11T06:38:50.110Z,1.40
2023-02-11T06:41:22.306Z,1.40
2023-02-11T06:43:50.132Z,1.40
2023-02-11T06:46:17.111Z,1.40
2023-02-11T06:48:45.054Z,1.40
2023-02-11T06:51:13.828Z,1.40
2023-02-11T06:53:44.823Z,1.50
2023-02-11T06:56:17.275Z,1.40
2023-02-11T06:58:44.667Z,1.50
2023-02-11T07:01:16.288Z,1.50
2023-02-11T07:03:46.475Z,1.50
2023-02-11T07:06:20.519Z,1.60
2023-02-11T07:08:47.953Z,1.60
2023-02-11T07:11:24.550Z,1.60
2023-02-11T07:13:54.590Z,1.60
2023-02-11T07:16:22.629Z,1.70
2023-02-11T07:18:49.870Z,1.80
2023-02-11T07:21:20.956Z,1.90
2023-02-11T07:23:48.637Z,1.90
2023-02-11T07:26:19.303Z,1.90
2023-02-11T07:28:50.901Z,1.90
2023-02-11T07:31:22.245Z,1.90
2023-02-11T07:33:49.380Z,1.80
2023-02-11T07:36:17.466Z,1.90
2023-02-11T07:38:44.446Z,1.90
2023-02-11T07:41:15.573Z,1.90
2023-02-11T07:43:43.449Z,1.90
2023-02-11T07:46:23.766Z,1.90
2023-02-11T07:48:51.201Z,1.90
2023-02-11T07:51:21.022Z,1.90
2023-02-11T07:53:52.091Z,2.00
2023-02-11T07:56:20.912Z,2.00
2023-02-11T07:58:48.302Z,2.10
2023-02-11T08:01:27.108Z,2.00
2023-02-11T08:03:56.434Z,2.00
2023-02-11T08:06:26.362Z,1.90
2023-02-11T08:08:53.489Z,1.90
2023-02-11T08:11:26.550Z,2.00
2023-02-11T08:13:55.676Z,2.00
2023-02-11T08:16:29.904Z,2.10
2023-02-11T08:19:01.397Z,2.10
2023-02-11T08:21:29.184Z,2.10
2023-02-11T08:23:57.074Z,2.10
2023-02-11T08:26:28.818Z,2.20
2023-02-11T08:28:57.938Z,2.20
2023-02-11T08:31:33.307Z,2.20
2023-02-11T08:34:02.368Z,2.30
2023-02-11T08:36:35.774Z,2.30
2023-02-11T08:39:18.680Z,2.40
2023-02-11T08:41:52.778Z,2.50
2023-02-11T08:44:21.106Z,2.50
2023-02-11T08:46:48.595Z,2.50
2023-02-11T08:49:17.986Z,2.60
2023-02-11T08:51:46.006Z,2.60
2023-02-11T10:12:49.187Z,4.20
2023-02-11T10:15:27.658Z,4.20
2023-02-11T10:18:39.358Z,4.20
2023-02-11T10:21:20.541Z,4.20
2023-02-11T10:23:52.472Z,4.40
2023-02-11T10:26:20.463Z,4.50
2023-02-11T10:28:54.824Z,4.60
2023-02-11T10:31:41.394Z,4.80
2023-02-11T10:34:12.676Z,5.10
2023-02-11T10:36:43.614Z,5.40
2023-02-11T10:39:16.299Z,5.50
2023-02-11T10:42:11.200Z,5.70
2023-02-11T10:44:50.010Z,5.60
2023-02-11T10:47:24.703Z,5.70
2023-02-11T10:49:52.434Z,5.80
2023-02-11T10:52:24.054Z,5.70
2023-02-11T10:55:21.271Z,5.60
2023-02-11T10:58:01.183Z,5.60
2023-02-11T11:00:40.323Z,5.70
2023-02-11T11:03:23.559Z,5.90
2023-02-11T11:06:04.608Z,5.80
2023-02-11T11:08:49.034Z,5.90
2023-02-11T11:11:22.097Z,6.00
2023-02-11T11:14:01.446Z,5.90
2023-02-11T11:16:35.636Z,5.90
2023-02-11T11:19:08.633Z,6.00
2023-02-11T11:21:49.880Z,6.10
2023-02-11T11:24:31.562Z,6.20
2023-02-11T11:27:02.430Z,6.40
2023-02-11T11:29:40.129Z,6.50
2023-02-11T11:32:20.548Z,6.50
2023-02-11T11:34:57.228Z,6.50
2023-02-11T11:37:28.670Z,6.50
2023-02-11T11:39:57.739Z,6.60
2023-02-11T11:42:31.923Z,6.80
2023-02-11T11:45:10.182Z,6.70
2023-02-11T11:47:49.107Z,6.70
2023-02-11T11:50:26.505Z,6.90
2023-02-11T11:53:04.128Z,6.90
2023-02-11T11:56:04.324Z,6.90
2023-02-11T11:58:33.256Z,6.80
2023-02-11T12:01:28.229Z,6.90
2023-02-11T12:04:38.225Z,7.30
2023-02-11T12:07:46.460Z,7.30
2023-02-11T12:10:43.727Z,7.40
2023-02-11T12:13:20.352Z,7.40
2023-02-11T12:16:10.079Z,7.50
2023-02-11T12:18:49.450Z,7.50
2023-02-11T12:21:25.526Z,7.70
2023-02-11T12:24:05.353Z,7.80
2023-02-11T12:26:47.649Z,7.80
2023-02-11T12:29:27.040Z,7.80
2023-02-11T12:32:51.211Z,7.80
2023-02-11T12:35:51.693Z,7.80
2023-02-11T12:39:06.403Z,7.80
2023-02-11T12:42:04.061Z,7.80
2023-02-11T12:44:41.724Z,7.90
2023-02-11T12:47:23.730Z,7.90
2023-02-11T12:50:19.297Z,7.70
2023-02-11T12:53:23.388Z,7.50
2023-02-11T12:55:58.671Z,7.30
2023-02-11T12:58:44.103Z,7.40
2023-02-11T13:01:30.076Z,7.60
2023-02-11T13:04:02.310Z,7.60
2023-02-11T13:06:52.230Z,7.50
2023-02-11T13:09:32.869Z,7.50
2023-02-11T13:12:23.699Z,7.50
2023-02-11T13:14:54.474Z,7.40
2023-02-11T13:17:32.941Z,7.30
2023-02-11T13:20:14.000Z,7.20
2023-02-11T13:22:57.304Z,7.10
2023-02-11T13:25:42.892Z,7.10
2023-02-11T13:29:10.152Z,7.10
2023-02-11T13:31:37.245Z,7.20
2023-02-11T13:34:27.846Z,7.20
2023-02-11T13:36:56.822Z,7.30
2023-02-11T13:39:24.730Z,7.40
2023-02-11T13:42:02.478Z,7.40
2023-02-11T13:44:29.572Z,7.40
2023-02-11T13:47:03.417Z,7.30
2023-02-11T13:49:36.019Z,7.20
2023-02-11T13:52:16.707Z,7.30
2023-02-11T13:54:51.214Z,7.30
2023-02-11T13:57:21.288Z,7.30
2023-02-11T13:59:50.947Z,7.30
2023-02-11T14:02:36.747Z,7.00
2023-02-11T14:05:22.376Z,7.00
2023-02-11T14:08:29.659Z,7.00
2023-02-11T14:11:16.703Z,7.00
2023-02-11T14:13:49.562Z,6.90
2023-02-11T14:16:36.852Z,6.90
2023-02-11T14:19:04.662Z,6.80
2023-02-11T14:21:40.464Z,6.80
2023-02-11T14:24:11.239Z,6.60
2023-02-11T14:26:58.836Z,6.50
2023-02-11T14:29:40.510Z,6.60
2023-02-11T14:32:55.600Z,6.60
2023-02-11T14:35:52.727Z,6.50
2023-02-11T14:38:40.621Z,6.50
2023-02-11T14:41:24.932Z,6.50
2023-02-11T14:43:56.820Z,6.40
2023-02-11T14:46:27.877Z,6.40
2023-02-11T14:48:59.657Z,6.40
2023-02-11T14:51:34.918Z,6.30
2023-02-11T14:54:17.960Z,6.30
2023-02-11T14:56:46.756Z,6.30
2023-02-11T14:59:23.527Z,6.30
2023-02-11T15:01:54.713Z,6.20
2023-02-11T15:04:31.987Z,6.30
2023-02-11T15:07:07.401Z,6.30
2023-02-11T15:09:41.390Z,6.20
2023-02-11T15:12:20.354Z,6.20
2023-02-11T15:14:50.620Z,6.20
2023-02-11T15:17:23.141Z,6.30
2023-02-11T15:19:55.033Z,6.30
2023-02-11T15:22:29.500Z,6.40
2023-02-11T15:25:17.269Z,6.40
2023-02-11T15:27:56.934Z,6.50
2023-02-11T15:30:23.833Z,6.50
2023-02-11T15:33:00.895Z,6.50
2023-02-11T15:35:39.987Z,6.60
2023-02-11T15:38:08.601Z,6.60
2023-02-11T15:40:37.633Z,6.50
2023-02-11T15:43:08.087Z,6.50
2023-02-11T15:45:53.960Z,6.40
2023-02-11T15:48:38.746Z,6.40
2023-02-11T15:51:25.894Z,6.30
2023-02-11T15:53:57.071Z,6.30
2023-02-11T15:56:33.370Z,6.20
2023-02-11T15:59:12.952Z,6.20
2023-02-11T16:01:41.050Z,6.20
2023-02-11T16:04:16.723Z,6.20
2023-02-11T16:06:47.659Z,6.20
2023-02-11T16:09:14.576Z,6.10
2023-02-11T16:11:48.049Z,6.00
2023-02-11T16:14:37.172Z,6.00
2023-02-11T16:17:13.514Z,5.90
2023-02-11T16:19:49.887Z,5.90
2023-02-11T16:22:35.350Z,5.90
2023-02-11T16:25:02.845Z,5.80
2023-02-11T16:27:40.454Z,5.80
2023-02-11T16:30:37.914Z,5.80
2023-02-11T16:33:05.980Z,5.90
2023-02-11T16:35:33.163Z,5.90
2023-02-11T16:38:00.570Z,5.90
2023-02-11T16:40:27.688Z,5.90
2023-02-11T16:42:54.719Z,5.80
2023-02-11T16:45:21.646Z,5.80
2023-02-11T16:47:48.652Z,5.80
2023-02-11T16:50:25.557Z,5.80
2023-02-11T16:52:52.992Z,5.80
2023-02-11T16:55:22.048Z,5.80
2023-02-11T16:57:49.703Z,5.80
2023-02-11T17:00:17.897Z,5.80
2023-02-11T17:02:46.808Z,5.90
2023-02-11T17:05:23.088Z,5.90
2023-02-11T17:07:50.280Z,5.90
2023-02-11T17:10:21.280Z,5.90
2023-02-11T17:12:49.882Z,5.80
2023-02-11T17:15:17.218Z,5.70
2023-02-11T17:17:44.501Z,5.70
2023-02-11T17:20:14.096Z,5.70
2023-02-11T17:22:41.670Z,5.70
2023-02-11T17:25:09.412Z,5.70
2023-02-11T17:27:36.882Z,5.70
2023-02-11T17:30:05.322Z,5.70
2023-02-11T17:32:32.369Z,5.70
2023-02-11T17:34:59.479Z,5.70
2023-02-11T17:37:26.967Z,5.70
2023-02-11T17:39:54.747Z,5.70
2023-02-11T17:42:21.722Z,5.70
2023-02-11T17:44:49.061Z,5.70
2023-02-11T17:47:15.992Z,5.70
2023-02-11T17:49:42.996Z,5.80
2023-02-11T17:52:10.248Z,5.80
2023-02-11T17:54:38.588Z,5.70
2023-02-11T17:57:05.535Z,5.70
2023-02-11T17:59:35.466Z,5.70
2023-02-11T18:02:06.537Z,5.70
2023-02-11T18:04:34.130Z,5.70
2023-02-11T18:07:01.400Z,5.70
2023-02-11T18:09:28.482Z,5.70
2023-02-11T18:11:55.505Z,5.70
2023-02-11T18:14:23.291Z,5.70
2023-02-11T18:16:54.349Z,5.70
2023-02-11T18:19:21.499Z,5.60
2023-02-11T18:21:50.431Z,5.50
2023-02-11T18:24:18.604Z,5.40
2023-02-11T18:26:45.622Z,5.30
2023-02-11T18:29:12.629Z,5.30
2023-02-11T18:31:39.821Z,5.40
2023-02-11T18:34:10.509Z,5.30
2023-02-11T18:36:37.736Z,5.30
2023-02-11T18:39:05.151Z,5.40
2023-02-11T18:41:35.372Z,5.40
2023-02-11T18:44:03.378Z,5.30
2023-02-11T18:46:31.447Z,5.30
2023-02-11T18:48:58.568Z,5.30
2023-02-11T18:51:25.649Z,5.30
2023-02-11T18:53:53.119Z,5.20
2023-02-11T18:56:22.836Z,5.10
2023-02-11T18:58:51.558Z,5.10
2023-02-11T19:01:27.117Z,5.10
2023-02-11T19:03:57.274Z,5.10
2023-02-11T19:06:32.476Z,5.00
2023-02-11T19:09:04.445Z,4.90
2023-02-11T19:11:49.015Z,4.80
2023-02-11T19:14:25.261Z,4.90
2023-02-11T19:16:56.055Z,4.90
2023-02-11T19:19:25.407Z,4.80
2023-02-11T19:21:52.449Z,4.80
2023-02-11T19:24:20.202Z,4.80
2023-02-11T19:26:49.424Z,4.80
2023-02-11T19:29:17.388Z,4.80
2023-02-11T19:31:45.318Z,4.80
2023-02-11T19:34:14.889Z,4.80
2023-02-11T19:36:41.989Z,4.90
2023-02-11T19:39:09.354Z,5.00
2023-02-11T19:41:36.873Z,4.90
2023-02-11T19:44:06.361Z,4.80
2023-02-11T19:46:37.564Z,4.80
2023-02-11T19:49:05.272Z,4.80
2023-02-11T19:51:33.943Z,4.80
2023-02-11T19:54:00.956Z,5.00
2023-02-11T19:56:29.261Z,5.00
2023-02-11T19:58:56.790Z,5.00
2023-02-11T20:01:26.056Z,5.00
2023-02-11T20:03:55.347Z,5.10
2023-02-11T20:06:30.091Z,5.20
2023-02-11T20:09:07.543Z,5.20
2023-02-11T20:11:35.634Z,5.10
2023-02-11T20:14:02.689Z,5.00
2023-02-11T20:16:47.000Z,5.10
2023-02-11T20:19:21.859Z,5.10
2023-02-11T20:21:56.075Z,4.90
2023-02-11T20:24:25.321Z,4.80
2023-02-11T20:26:55.950Z,4.80
2023-02-11T20:29:24.473Z,4.90
2023-02-11T20:31:51.769Z,4.80
2023-02-11T20:34:18.973Z,4.90
2023-02-11T20:36:52.188Z,4.90
2023-02-11T20:39:22.260Z,4.80
2023-02-11T20:41:50.612Z,4.80
2023-02-11T20:44:18.243Z,4.80
2023-02-11T20:46:48.918Z,4.80
2023-02-11T20:49:19.958Z,4.70
2023-02-11T20:51:47.135Z,4.60
2023-02-11T20:54:18.344Z,4.60
2023-02-11T20:56:50.829Z,4.70
2023-02-11T20:59:18.436Z,4.70
2023-02-11T21:01:49.661Z,4.70
2023-02-11T21:04:20.942Z,4.60
2023-02-11T21:06:52.178Z,4.60
2023-02-11T21:09:22.886Z,4.60
2023-02-11T21:11:52.316Z,4.60
2023-02-11T21:14:22.345Z,4.70
2023-02-11T21:16:49.771Z,4.70
2023-02-11T21:19:17.559Z,4.70
2023-02-11T21:21:44.617Z,4.80
2023-02-11T21:24:12.548Z,4.70
2023-02-11T21:26:40.064Z,4.70
2023-02-11T21:29:08.607Z,4.70
2023-02-11T21:31:36.570Z,4.70
2023-02-11T21:34:03.935Z,4.70
2023-02-11T21:36:31.114Z,4.70
2023-02-11T21:39:04.180Z,4.70
2023-02-11T21:41:31.957Z,4.80
2023-02-11T21:43:59.058Z,4.80
2023-02-11T21:46:26.382Z,4.90
2023-02-11T21:48:53.606Z,4.90
2023-02-11T21:51:24.001Z,4.90
2023-02-11T21:54:01.422Z,4.90
2023-02-11T21:56:31.395Z,4.90
2023-02-11T21:58:59.717Z,5.00
2023-02-11T22:01:33.375Z,5.00
2023-02-11T22:04:00.940Z,5.00
2023-02-11T22:06:31.337Z,5.00
2023-02-11T22:09:01.837Z,4.90
2023-02-11T22:11:28.879Z,4.80
2023-02-11T22:13:58.131Z,4.70
2023-02-11T22:16:26.342Z,4.70
2023-02-11T22:18:53.642Z,4.70
2023-02-11T22:21:22.606Z,4.60
2023-02-11T22:23:50.912Z,4.50
2023-02-11T22:26:23.755Z,4.50
2023-02-11T22:28:52.073Z,4.50
2023-02-11T22:31:29.677Z,4.50
2023-02-11T22:33:57.490Z,4.50
2023-02-11T22:36:37.193Z,4.50
2023-02-11T22:39:07.906Z,4.50
2023-02-11T22:41:35.025Z,4.40
2023-02-11T22:44:02.028Z,4.40
2023-02-11T22:46:29.110Z,4.40
2023-02-11T22:48:56.788Z,4.50
2023-02-11T22:51:27.960Z,4.50
2023-02-11T22:54:02.074Z,4.50
2023-02-11T22:56:32.119Z,4.40
2023-02-11T22:59:07.613Z,4.40
2023-02-11T23:01:35.469Z,4.50
2023-02-11T23:04:06.010Z,4.60
2023-02-11T23:06:33.619Z,4.60
2023-02-11T23:09:03.471Z,4.60
2023-02-11T23:11:31.208Z,4.60
2023-02-11T23:13:59.019Z,4.50
2023-02-11T23:16:32.471Z,4.50
2023-02-11T23:19:02.483Z,4.50
2023-02-11T23:21:32.345Z,4.50
2023-02-11T23:24:03.569Z,4.50
2023-02-11T23:26:31.224Z,4.60
2023-02-11T23:29:00.077Z,4.60
2023-02-11T23:31:37.683Z,4.50
2023-02-11T23:34:05.684Z,4.50
2023-02-11T23:36:33.186Z,4.50
2023-02-11T23:39:00.741Z,4.50
2023-02-11T23:41:28.893Z,4.50
2023-02-11T23:43:57.967Z,4.40
2023-02-11T23:46:28.669Z,4.40
2023-02-11T23:48:56.088Z,4.30
2023-02-11T23:51:23.579Z,4.30
2023-02-11T23:53:54.210Z,4.30
2023-02-11T23:56:25.147Z,4.20
2023-02-11T23:58:54.825Z,4.20
